FDX9295 KBTV-KSYR
Flight info
| Callsign | FDX9295 |
|---|---|
| Flight time | N/A |
| Altitude | 8000 |
| Route | DENYU STODA |
| Aircraft | C208/L-SDFGR/C |
Departure
| Time | 2026-04-28 20:33 |
|---|---|
| Airport | Patrick Leahy Burlington International Airport (KBTV) |
Arrival
| Time | N/A |
|---|---|
| Airport | Syracuse Hancock International Airport (KSYR) |
| Time | Latitude | Longitude | Altitude | Speed | Heading |
|---|---|---|---|---|---|
| 2026-04-28 20:05 | 44.46482 | -73.14792 | 341 ft | 0 kts | 174° |
| 2026-04-28 20:26 | 44.46474 | -73.14781 | 341 ft | 4 kts | 88° |
| 2026-04-28 20:27 | 44.46477 | -73.14774 | 341 ft | 0 kts | 24° |
| 2026-04-28 20:27 | 44.46483 | -73.14773 | 341 ft | 5 kts | 2° |
| 2026-04-28 20:27 | 44.46531 | -73.14754 | 341 ft | 9 kts | 42° |
| 2026-04-28 20:28 | 44.46555 | -73.14696 | 341 ft | 9 kts | 58° |
| 2026-04-28 20:28 | 44.46565 | -73.14591 | 341 ft | 9 kts | 82° |
| 2026-04-28 20:28 | 44.46573 | -73.14502 | 341 ft | 12 kts | 82° |
| 2026-04-28 20:28 | 44.46579 | -73.14419 | 341 ft | 8 kts | 84° |
| 2026-04-28 20:29 | 44.46606 | -73.14359 | 341 ft | 4 kts | 38° |
| 2026-04-28 20:29 | 44.46610 | -73.14355 | 341 ft | 0 kts | 38° |
| 2026-04-28 20:31 | 44.46618 | -73.14346 | 341 ft | 5 kts | 37° |
| 2026-04-28 20:31 | 44.46664 | -73.14323 | 341 ft | 4 kts | 322° |
| 2026-04-28 20:31 | 44.46666 | -73.14325 | 341 ft | 0 kts | 317° |
| 2026-04-28 20:32 | 44.46666 | -73.14326 | 341 ft | 0 kts | 316° |
| 2026-04-28 20:32 | 44.46828 | -73.14587 | 341 ft | 73 kts | 311° |
| 2026-04-28 20:32 | 44.47256 | -73.15260 | 418 ft | 107 kts | 310° |
| 2026-04-28 20:32 | 44.47801 | -73.16082 | 560 ft | 122 kts | 310° |
| 2026-04-28 20:33 | 44.48383 | -73.16970 | 595 ft | 135 kts | 310° |
| 2026-04-28 20:33 | 44.49013 | -73.17929 | 800 ft | 131 kts | 310° |
| 2026-04-28 20:33 | 44.49622 | -73.18848 | 1047 ft | 127 kts | 310° |
| 2026-04-28 20:33 | 44.50270 | -73.19682 | 1272 ft | 127 kts | 318° |
| 2026-04-28 20:34 | 44.50976 | -73.20422 | 1511 ft | 127 kts | 320° |
| 2026-04-28 20:34 | 44.51607 | -73.21277 | 1695 ft | 127 kts | 295° |
| 2026-04-28 20:34 | 44.51564 | -73.22428 | 1898 ft | 128 kts | 245° |
| 2026-04-28 20:34 | 44.50837 | -73.23177 | 2124 ft | 134 kts | 210° |
| 2026-04-28 20:35 | 44.49930 | -73.23542 | 2363 ft | 137 kts | 201° |
| 2026-04-28 20:35 | 44.48999 | -73.23824 | 2592 ft | 136 kts | 202° |
| 2026-04-28 20:35 | 44.48132 | -73.24282 | 2830 ft | 131 kts | 214° |
| 2026-04-28 20:35 | 44.47382 | -73.24973 | 3063 ft | 128 kts | 225° |
| 2026-04-28 20:36 | 44.46743 | -73.25819 | 3296 ft | 125 kts | 234° |
| 2026-04-28 20:36 | 44.46185 | -73.26742 | 3527 ft | 123 kts | 239° |
| 2026-04-28 20:36 | 44.45673 | -73.27699 | 3758 ft | 122 kts | 241° |
| 2026-04-28 20:36 | 44.45189 | -73.28670 | 3989 ft | 121 kts | 243° |
| 2026-04-28 20:37 | 44.44712 | -73.29638 | 4220 ft | 120 kts | 244° |
| 2026-04-28 20:37 | 44.44241 | -73.30587 | 4482 ft | 117 kts | 244° |
| 2026-04-28 20:37 | 44.43780 | -73.31514 | 4753 ft | 115 kts | 245° |
| 2026-04-28 20:37 | 44.43328 | -73.32425 | 5018 ft | 114 kts | 246° |
| 2026-04-28 20:38 | 44.42878 | -73.33330 | 5283 ft | 112 kts | 247° |
| 2026-04-28 20:38 | 44.42432 | -73.34224 | 5556 ft | 112 kts | 248° |
| 2026-04-28 20:38 | 44.41991 | -73.35111 | 5818 ft | 110 kts | 248° |
| 2026-04-28 20:38 | 44.41554 | -73.35991 | 6091 ft | 109 kts | 249° |
| 2026-04-28 20:39 | 44.41120 | -73.36859 | 6365 ft | 108 kts | 249° |
| 2026-04-28 20:39 | 44.40691 | -73.37721 | 6620 ft | 108 kts | 249° |
| 2026-04-28 20:39 | 44.40268 | -73.38573 | 6880 ft | 108 kts | 250° |
| 2026-04-28 20:39 | 44.39839 | -73.39433 | 7143 ft | 108 kts | 250° |
| 2026-04-28 20:40 | 44.39411 | -73.40291 | 7404 ft | 108 kts | 249° |
| 2026-04-28 20:40 | 44.38983 | -73.41147 | 7658 ft | 107 kts | 250° |
| 2026-04-28 20:40 | 44.38554 | -73.42007 | 7904 ft | 108 kts | 250° |
| 2026-04-28 20:40 | 44.38125 | -73.42866 | 8162 ft | 107 kts | 250° |
| 2026-04-28 20:41 | 44.37698 | -73.43718 | 8421 ft | 106 kts | 250° |
| 2026-04-28 20:41 | 44.37275 | -73.44567 | 8678 ft | 107 kts | 251° |
| 2026-04-28 20:41 | 44.36852 | -73.45414 | 8925 ft | 106 kts | 251° |
| 2026-04-28 20:41 | 44.36429 | -73.46263 | 9168 ft | 106 kts | 251° |
| 2026-04-28 20:42 | 44.36005 | -73.47110 | 9412 ft | 106 kts | 250° |
| 2026-04-28 20:42 | 44.35588 | -73.47942 | 9656 ft | 105 kts | 250° |
| 2026-04-28 20:42 | 44.35162 | -73.48790 | 9900 ft | 105 kts | 250° |
| 2026-04-28 20:42 | 44.34748 | -73.49617 | 10142 ft | 104 kts | 250° |
| 2026-04-28 20:43 | 44.34335 | -73.50442 | 10378 ft | 103 kts | 249° |
| 2026-04-28 20:43 | 44.33923 | -73.51266 | 10605 ft | 103 kts | 249° |
| 2026-04-28 20:43 | 44.33519 | -73.52073 | 10844 ft | 102 kts | 249° |
| 2026-04-28 20:43 | 44.33113 | -73.52884 | 11083 ft | 102 kts | 248° |
| 2026-04-28 20:44 | 44.32708 | -73.53692 | 11316 ft | 101 kts | 248° |
| 2026-04-28 20:44 | 44.32311 | -73.54483 | 11541 ft | 102 kts | 248° |
| 2026-04-28 20:44 | 44.31883 | -73.55353 | 11518 ft | 117 kts | 247° |
| 2026-04-28 20:44 | 44.31379 | -73.56377 | 11280 ft | 138 kts | 246° |
| 2026-04-28 20:45 | 44.30804 | -73.57518 | 11041 ft | 149 kts | 245° |
| 2026-04-28 20:45 | 44.30195 | -73.58721 | 10809 ft | 154 kts | 245° |
| 2026-04-28 20:45 | 44.29569 | -73.59955 | 10577 ft | 157 kts | 245° |
| 2026-04-28 20:45 | 44.28935 | -73.61208 | 10344 ft | 159 kts | 246° |
| 2026-04-28 20:46 | 44.28297 | -73.62470 | 10111 ft | 160 kts | 246° |
| 2026-04-28 20:46 | 44.27656 | -73.63739 | 9886 ft | 160 kts | 246° |
| 2026-04-28 20:46 | 44.27013 | -73.65015 | 9653 ft | 161 kts | 246° |
| 2026-04-28 20:46 | 44.26430 | -73.66173 | 9445 ft | 0 kts | 247° |
| 2026-04-28 20:47 | 44.46482 | -73.14792 | 341 ft | 0 kts | 174° |